Terminal Aerodrome Forecast
Issued by NWS

Home | Current Version | Previous Version | Text Only | Print | Product List | Glossary On
Versions: 1 2 3 4 5 6 7 8 9 10 11 12 13
000
FTAK31 PANC 191138
TAFAVD
TAF
PAVD 191138Z 1912/2012 11005KT P6SM SKC
      TEMPO 1912/1915 08010G20KT
     FM191500 06015G25KT P6SM SKC
      AMD LTD TO CLD VIS AND WIND=

USA.gov is the U.S. government's official web portal to all federal, state and local government web resources and services.